(°C)
18°
17°
18°
20°
23°
25°
27°
(°C)
19°
18°
19°
21°
24°
26°
27°
WNW
WNW
NW
NNW
NNW
NNW
NE
(km/h)
4-8
5-11
5-12
4-12
5-13
6-12
8-12
(mm)
0
0
0
0
0
0
0
(%)
0
0
0
0
0
0
0

Wysokość słońca

/ -21.7°
sun-icon
UV 7
05:13
20:44
Sierp przybywający (34°)
07:28
23:29

METAR dla 44.1°N 15.3°E (LDZD)

Czas Warunki Temperatura/
Punkt rosy
Wiatr Widzialność Pogoda Chmury Ciśn. atm. Zmień Surowy
VFR 18°C / 15°C variable 0kt >10km - Clouds and Visibility OK 1016 - LDZD 122330Z 00000KT CAVOK 18/15 Q1016
VFR 18°C / 16°C variable 0kt >10km - Clouds and Visibility OK 1016 - LDZD 122300Z 00000KT CAVOK 18/16 Q1016
VFR 18°C / 16°C 10º 3kt >10km - Clouds and Visibility OK 1017 - LDZD 122230Z 01003KT CAVOK 18/16 Q1017
VFR 18°C / 16°C 330º 3kt >10km - Clouds and Visibility OK 1017 - LDZD 122200Z 33003KT CAVOK 18/16 Q1017
VFR 19°C / 16°C 340º 3kt >10km - Clouds and Visibility OK 1017 - LDZD 122130Z 34003KT CAVOK 19/16 Q1017
VFR 19°C / 16°C 340º variable 310º to 030º 3kt >10km - Clouds and Visibility OK 1016 - LDZD 122100Z 34003KT 310V030 CAVOK 19/16 Q1016
VFR 20°C / 16°C 310º 4kt >10km - Clouds and Visibility OK 1016 - LDZD 122030Z 31004KT CAVOK 20/16 Q1016
VFR 20°C / 16°C 290º 7kt >10km - Clouds and Visibility OK 1016 Becoming: Wind 320º 4kt. LDZD 122000Z 29007KT CAVOK 20/16 Q1016 BECMG 32004KT
VFR 21°C / 16°C 300º 8kt >10km - Clouds and Visibility OK 1016 Becoming: Wind 320º 4kt. LDZD 121930Z 30008KT CAVOK 21/16 Q1016 BECMG 32004KT
VFR 22°C / 16°C 290º 8kt >10km - Clouds and Visibility OK 1016 Becoming: Wind 320º 4kt. LDZD 121900Z 29008KT CAVOK 22/16 Q1016 BECMG 32004KT
VFR 23°C / 16°C 280º 7kt >10km - Clouds and Visibility OK 1015 No Significant change LDZD 121830Z 28007KT CAVOK 23/16 Q1015 NOSIG
VFR 24°C / 15°C 290º 9kt >10km - Clouds and Visibility OK 1015 No Significant change LDZD 121800Z 29009KT CAVOK 24/15 Q1015 NOSIG
VFR 25°C / 14°C 290º variable 260º to 320º 10kt >10km - Clouds and Visibility OK 1015 No Significant change LDZD 121730Z 29010KT 260V320 CAVOK 25/14 Q1015 NOSIG
VFR 26°C / 13°C 300º variable 280º to 340º 13kt >10km - Clouds and Visibility OK 1015 No Significant change LDZD 121700Z 30013KT 280V340 CAVOK 26/13 Q1015 NOSIG
VFR 27°C / 13°C 290º variable 260º to 320º 13kt >10km - Few Clouds 6000ft 1015 No Significant change LDZD 121630Z 29013KT 260V320 9999 FEW060 27/13 Q1015 NOSIG
VFR 27°C / 12°C 300º variable 260º to 340º 16kt >10km - Few Clouds 6000ft 1015 No Significant change LDZD 121600Z 30016KT 260V340 9999 FEW060 27/12 Q1015 NOSIG
VFR 26°C / 12°C 280º variable 250º to 310º 12kt >10km - Few Clouds 5000ft 1015 No Significant change LDZD 121530Z 28012KT 250V310 9999 FEW050 26/12 Q1015 NOSIG
VFR 27°C / 11°C 300º variable 270º to 330º 16kt >10km - Few Clouds 5000ft 1016 No Significant change LDZD 121500Z 30016KT 270V330 9999 FEW050 27/11 Q1016 NOSIG
VFR 29°C / 11°C 290º 16kt >10km - Few Clouds 5000ft 1016 No Significant change LDZD 121430Z 29016KT 9999 FEW050 29/11 Q1016 NOSIG
VFR 28°C / 11°C 300º 14kt >10km - Few Clouds 5000ft 1016 No Significant change LDZD 121400Z 30014KT 9999 FEW050 28/11 Q1016 NOSIG
VFR 29°C / 11°C 290º variable 250º to 330º 11kt >10km - Few Clouds 5000ft 1016 No Significant change LDZD 121330Z 29011KT 250V330 9999 FEW050 29/11 Q1016 NOSIG
VFR 29°C / 11°C 290º variable 260º to 350º 12kt >10km - Few Clouds 5000ft 1016 No Significant change LDZD 121300Z 29012KT 260V350 9999 FEW050 29/11 Q1016 NOSIG
VFR 28°C / 11°C 320º variable 290º to 350º 11kt >10km - Few Clouds 5000ft 1016 No Significant change LDZD 121230Z 32011KT 290V350 9999 FEW050 28/11 Q1016 NOSIG
VFR 28°C / 12°C 330º variable 260º to 020º 10kt >10km - Few Clouds 5000ft 1017 No Significant change LDZD 121200Z 33010KT 260V020 9999 FEW050 28/12 Q1017 NOSIG

VFR

18°C / 15°C

[Więcej]
Wiatr variable 0kt
Widzialność >10km
Pogoda -
Chmury Clouds and Visibility OK
Ciśn. atm. 1016
Zmień -
Surowy LDZD 122330Z 00000KT CAVOK 18/15 Q1016

VFR

18°C / 16°C

[Więcej]
Wiatr variable 0kt
Widzialność >10km
Pogoda -
Chmury Clouds and Visibility OK
Ciśn. atm. 1016
Zmień -
Surowy LDZD 122300Z 00000KT CAVOK 18/16 Q1016

VFR

18°C / 16°C

[Więcej]
Wiatr 10º 3kt
Widzialność >10km
Pogoda -
Chmury Clouds and Visibility OK
Ciśn. atm. 1017
Zmień -
Surowy LDZD 122230Z 01003KT CAVOK 18/16 Q1017

VFR

18°C / 16°C

[Więcej]
Wiatr 330º 3kt
Widzialność >10km
Pogoda -
Chmury Clouds and Visibility OK
Ciśn. atm. 1017
Zmień -
Surowy LDZD 122200Z 33003KT CAVOK 18/16 Q1017

VFR

19°C / 16°C

[Więcej]
Wiatr 340º 3kt
Widzialność >10km
Pogoda -
Chmury Clouds and Visibility OK
Ciśn. atm. 1017
Zmień -
Surowy LDZD 122130Z 34003KT CAVOK 19/16 Q1017

VFR

19°C / 16°C

[Więcej]
Wiatr 340º variable 310º to 030º 3kt
Widzialność >10km
Pogoda -
Chmury Clouds and Visibility OK
Ciśn. atm. 1016
Zmień -
Surowy LDZD 122100Z 34003KT 310V030 CAVOK 19/16 Q1016

VFR

20°C / 16°C

[Więcej]
Wiatr 310º 4kt
Widzialność >10km
Pogoda -
Chmury Clouds and Visibility OK
Ciśn. atm. 1016
Zmień -
Surowy LDZD 122030Z 31004KT CAVOK 20/16 Q1016

VFR

20°C / 16°C

[Więcej]
Wiatr 290º 7kt
Widzialność >10km
Pogoda -
Chmury Clouds and Visibility OK
Ciśn. atm. 1016
Zmień Becoming: Wind 320º 4kt.
Surowy LDZD 122000Z 29007KT CAVOK 20/16 Q1016 BECMG 32004KT

VFR

21°C / 16°C

[Więcej]
Wiatr 300º 8kt
Widzialność >10km
Pogoda -
Chmury Clouds and Visibility OK
Ciśn. atm. 1016
Zmień Becoming: Wind 320º 4kt.
Surowy LDZD 121930Z 30008KT CAVOK 21/16 Q1016 BECMG 32004KT

VFR

22°C / 16°C

[Więcej]
Wiatr 290º 8kt
Widzialność >10km
Pogoda -
Chmury Clouds and Visibility OK
Ciśn. atm. 1016
Zmień Becoming: Wind 320º 4kt.
Surowy LDZD 121900Z 29008KT CAVOK 22/16 Q1016 BECMG 32004KT

VFR

23°C / 16°C

[Więcej]
Wiatr 280º 7kt
Widzialność >10km
Pogoda -
Chmury Clouds and Visibility OK
Ciśn. atm. 1015
Zmień No Significant change
Surowy LDZD 121830Z 28007KT CAVOK 23/16 Q1015 NOSIG

VFR

24°C / 15°C

[Więcej]
Wiatr 290º 9kt
Widzialność >10km
Pogoda -
Chmury Clouds and Visibility OK
Ciśn. atm. 1015
Zmień No Significant change
Surowy LDZD 121800Z 29009KT CAVOK 24/15 Q1015 NOSIG

VFR

25°C / 14°C

[Więcej]
Wiatr 290º variable 260º to 320º 10kt
Widzialność >10km
Pogoda -
Chmury Clouds and Visibility OK
Ciśn. atm. 1015
Zmień No Significant change
Surowy LDZD 121730Z 29010KT 260V320 CAVOK 25/14 Q1015 NOSIG

VFR

26°C / 13°C

[Więcej]
Wiatr 300º variable 280º to 340º 13kt
Widzialność >10km
Pogoda -
Chmury Clouds and Visibility OK
Ciśn. atm. 1015
Zmień No Significant change
Surowy LDZD 121700Z 30013KT 280V340 CAVOK 26/13 Q1015 NOSIG

VFR

27°C / 13°C

[Więcej]
Wiatr 290º variable 260º to 320º 13kt
Widzialność >10km
Pogoda -
Chmury Few Clouds 6000ft
Ciśn. atm. 1015
Zmień No Significant change
Surowy LDZD 121630Z 29013KT 260V320 9999 FEW060 27/13 Q1015 NOSIG

VFR

27°C / 12°C

[Więcej]
Wiatr 300º variable 260º to 340º 16kt
Widzialność >10km
Pogoda -
Chmury Few Clouds 6000ft
Ciśn. atm. 1015
Zmień No Significant change
Surowy LDZD 121600Z 30016KT 260V340 9999 FEW060 27/12 Q1015 NOSIG

VFR

26°C / 12°C

[Więcej]
Wiatr 280º variable 250º to 310º 12kt
Widzialność >10km
Pogoda -
Chmury Few Clouds 5000ft
Ciśn. atm. 1015
Zmień No Significant change
Surowy LDZD 121530Z 28012KT 250V310 9999 FEW050 26/12 Q1015 NOSIG

VFR

27°C / 11°C

[Więcej]
Wiatr 300º variable 270º to 330º 16kt
Widzialność >10km
Pogoda -
Chmury Few Clouds 5000ft
Ciśn. atm. 1016
Zmień No Significant change
Surowy LDZD 121500Z 30016KT 270V330 9999 FEW050 27/11 Q1016 NOSIG

VFR

29°C / 11°C

[Więcej]
Wiatr 290º 16kt
Widzialność >10km
Pogoda -
Chmury Few Clouds 5000ft
Ciśn. atm. 1016
Zmień No Significant change
Surowy LDZD 121430Z 29016KT 9999 FEW050 29/11 Q1016 NOSIG

VFR

28°C / 11°C

[Więcej]
Wiatr 300º 14kt
Widzialność >10km
Pogoda -
Chmury Few Clouds 5000ft
Ciśn. atm. 1016
Zmień No Significant change
Surowy LDZD 121400Z 30014KT 9999 FEW050 28/11 Q1016 NOSIG

VFR

29°C / 11°C

[Więcej]
Wiatr 290º variable 250º to 330º 11kt
Widzialność >10km
Pogoda -
Chmury Few Clouds 5000ft
Ciśn. atm. 1016
Zmień No Significant change
Surowy LDZD 121330Z 29011KT 250V330 9999 FEW050 29/11 Q1016 NOSIG

VFR

29°C / 11°C

[Więcej]
Wiatr 290º variable 260º to 350º 12kt
Widzialność >10km
Pogoda -
Chmury Few Clouds 5000ft
Ciśn. atm. 1016
Zmień No Significant change
Surowy LDZD 121300Z 29012KT 260V350 9999 FEW050 29/11 Q1016 NOSIG

VFR

28°C / 11°C

[Więcej]
Wiatr 320º variable 290º to 350º 11kt
Widzialność >10km
Pogoda -
Chmury Few Clouds 5000ft
Ciśn. atm. 1016
Zmień No Significant change
Surowy LDZD 121230Z 32011KT 290V350 9999 FEW050 28/11 Q1016 NOSIG

VFR

28°C / 12°C

[Więcej]
Wiatr 330º variable 260º to 020º 10kt
Widzialność >10km
Pogoda -
Chmury Few Clouds 5000ft
Ciśn. atm. 1017
Zmień No Significant change
Surowy LDZD 121200Z 33010KT 260V020 9999 FEW050 28/12 Q1017 NOSIG

TAF dla 44.1°N 15.3°E (LDZD)

From till


Maximum Temperature 31ºC on . Minimum Temperature 15ºC on .
From till Wind 320º 5kt. Visibility 10km or more. Nil Significant Cloud.
Becoming from till Wind 60º 8kt. Visibility 10km or more. Nil Significant Cloud.
With 30% probability, Temporarly from till Wind 340º 8kt.

Surowy: TAF LDZD 122325Z 1300/1400 32005KT CAVOK TX31/1313Z TN15/1303Z BECMG 1307/1309 06008KT PROB30 TEMPO 1311/1315 34008KT

Aktualne zdjęcia satelitarne i zdjęcia opadów deszczu dla 44.1°N 15.3°E

Wskaźnik lokalizacji znajduje się na 44.1°N 15.3°E. [Więcej]

Obraz satelitarny w czasie rzeczywistym łączy światło widzialne w ciągu dnia z promieniowaniem podczerwonym w nocy. W nocy obraz nie jest ciemny, ponieważ promieniowanie podczerwone może wykrywać różnice temperatur. Niestety niskie chmury i mgłę trudno odróżnić od temperatury gruntu, przez co mogą być prawie niewidoczne w nocy. Zdjęcia satelitarne Meteosat dla Europy są aktualizowane w czasie rzeczywistym co 5 minut. Obrazy GOES-16/GOES-17 (Ameryka Północna i Południowa) oraz Himawari (Azja) są aktualizowane co 10 minut.

Opady zostały oszacowane na podstawie danych radarowych i satelitarnych. Szacunkowe dane opadów nocnych są mniej dokładne niż dane w ciągu dnia. Pomarańczowe krzyżyki oznaczają miejsca, gdzie zaobserwowano pioruny (nad Europa).

Prawa autorskie 2021 EUMETSAT / meteoblue. Dane dot. błyskawic dostarczone przez nowcast.

Radar i prognoza opadów na teraz dla 44.1°N 15.3°E

Wskaźnik lokalizacji jest umieszczony na 44.1°N 15.3°E. Animacja przedstawia radar opadów dla ostatniej godziny, jak również 1h prognozę pogody. Mżawka i lekkie opady mogą być niewidoczne na radarze. Intensywność opadów jest oznaczona kolorami od jasnoniebieskiego do ciemnofioletowego.